Time;durP1;ratioP1;P1;durP2;ratioP2;P2;SDS_P1;SDS_P2;PMS_P1;PMS_P2;Temp;Humidity;BMP_temperature;BMP_pressure;BME280_temperature;BME280_humidity;BME280_pressure;Samples;Min_cycle;Max_cycle;Signal;HPM_P1;HPM_P2
2022/06/02 00:00:39;;;;;;;4.65;2.10;;;;;;;17.01;62.42;100493.72;18500620;32;20657;-66
2022/06/02 00:10:50;;;;;;;6.57;2.30;;;;;;;16.05;66.09;100504.87;18502749;32;20696;-66
2022/06/02 00:20:56;;;;;;;3.97;1.90;;;;;;;14.93;69.36;100511.56;18501516;32;20466;-65
2022/06/02 00:31:06;;;;;;;3.80;1.90;;;;;;;15.55;67.14;100502.44;18501182;32;20106;-66
2022/06/02 00:41:17;;;;;;;5.72;2.37;;;;;;;15.79;65.98;100503.69;18500834;32;20176;-65
2022/06/02 00:51:28;;;;;;;3.57;2.00;;;;;;;14.70;69.05;100510.16;18500221;32;20093;-66
2022/06/02 01:01:34;;;;;;;3.55;1.87;;;;;;;16.38;62.62;100493.56;18500291;32;20085;-66
2022/06/02 01:11:46;;;;;;;4.12;2.20;;;;;;;15.82;65.21;100490.47;18500558;32;20085;-65
2022/06/02 01:22:13;;;;;;;4.60;2.08;;;;;;;15.21;67.33;100497.87;18499773;32;20127;-66
2022/06/02 01:32:20;;;;;;;2.15;1.90;;;;;;;15.99;65.87;100481.34;18499379;32;20175;-66
2022/06/02 01:42:31;;;;;;;3.37;1.85;;;;;;;16.07;68.12;100487.25;18498986;32;20092;-66
2022/06/02 01:52:43;;;;;;;4.32;2.15;;;;;;;16.42;67.14;100471.53;18498681;32;20338;-65
2022/06/02 02:02:55;;;;;;;3.60;2.10;;;;;;;15.68;70.27;100471.47;18498834;32;20123;-66
2022/06/02 02:13:11;;;;;;;3.53;2.05;;;;;;;16.43;69.23;100464.47;18498492;32;20096;-65
2022/06/02 02:23:20;;;;;;;3.42;2.10;;;;;;;16.99;67.26;100466.50;18496796;32;20104;-66
2022/06/02 02:33:33;;;;;;;4.57;2.45;;;;;;;16.81;68.35;100461.75;18497962;32;20365;-65
2022/06/02 02:43:41;;;;;;;4.85;2.25;;;;;;;17.17;67.27;100474.84;18497412;32;20096;-66
2022/06/02 02:53:52;;;;;;;5.85;1.90;;;;;;;17.84;64.34;100484.28;18497002;32;20089;-66
2022/06/02 03:04:07;;;;;;;5.25;2.10;;;;;;;18.00;63.54;100504.91;18496868;32;20413;-66
2022/06/02 03:14:19;;;;;;;2.90;1.75;;;;;;;17.65;65.76;100541.22;18496491;32;20089;-65
2022/06/02 03:24:59;;;;;;;3.00;1.62;;;;;;;17.93;64.30;100562.34;18495834;32;20088;-66
2022/06/02 03:35:19;;;;;;;4.62;2.30;;;;;;;18.28;62.94;100564.84;18229281;32;20200;-66
2022/06/02 03:45:33;;;;;;;4.22;2.00;;;;;;;17.66;65.59;100579.87;18229024;32;20129;-66
2022/06/02 03:55:47;;;;;;;3.20;1.92;;;;;;;18.27;64.73;100584.25;18202482;32;473222;-65
2022/06/02 04:05:59;;;;;;;3.53;2.10;;;;;;;17.64;68.14;100587.84;18315798;32;20534;-66
2022/06/02 04:16:19;;;;;;;;;;;;;;;18.10;67.21;100571.56;18493285;32;20108;-66
2022/06/02 04:26:31;;;;;;;4.00;2.28;;;;;;;18.14;67.17;100568.78;18492698;32;20011;-65
2022/06/02 04:36:41;;;;;;;3.22;2.25;;;;;;;18.10;67.79;100571.56;18477405;32;20103;-66
2022/06/02 04:47:02;;;;;;;4.85;2.00;;;;;;;17.79;69.72;100580.41;18498456;32;20104;-66
2022/06/02 04:57:16;;;;;;;4.32;2.30;;;;;;;18.12;68.72;100588.22;18500332;32;20092;-66
2022/06/02 05:07:28;;;;;;;4.18;2.37;;;;;;;18.38;67.65;100584.75;18500006;32;20107;-66
2022/06/02 05:17:56;;;;;;;5.70;2.10;;;;;;;19.24;63.53;100588.09;18499879;32;20097;-66
2022/06/02 05:28:28;;;;;;;5.37;2.30;;;;;;;18.78;65.44;100595.81;18498695;32;20111;-66
2022/06/02 05:38:44;;;;;;;4.53;2.57;;;;;;;18.82;66.63;100628.31;18499361;32;20108;-66
2022/06/02 05:49:04;;;;;;;3.62;2.08;;;;;;;19.01;66.18;100631.22;18498763;32;20093;-66
2022/06/02 05:59:30;;;;;;;4.12;2.40;;;;;;;19.09;65.83;100646.87;18498308;32;20096;-66
2022/06/02 06:09:41;;;;;;;6.22;2.50;;;;;;;19.40;64.90;100638.75;18497469;32;20112;-66
2022/06/02 06:20:02;;;;;;;3.87;2.20;;;;;;;20.24;61.42;100622.41;18497664;32;20093;-66
2022/06/02 06:30:10;;;;;;;6.60;2.80;;;;;;;18.97;68.07;100638.41;18493781;32;20109;-66
2022/06/02 06:40:29;;;;;;;4.85;2.55;;;;;;;18.82;67.32;100646.84;18496722;32;20096;-66
2022/06/02 06:50:39;;;;;;;4.05;2.40;;;;;;;20.09;64.31;100657.47;18495452;32;20444;-66
2022/06/02 07:00:49;;;;;;;4.62;2.33;;;;;;;20.23;64.53;100657.78;18494959;32;20093;-66
2022/06/02 07:10:58;;;;;;;4.80;2.60;;;;;;;20.99;61.66;100661.06;18481344;32;20140;-66
2022/06/02 07:21:19;;;;;;;3.75;1.90;;;;;;;21.78;58.24;100662.12;18495943;32;20183;-66
2022/06/02 07:31:35;;;;;;;4.57;1.60;;;;;;;21.44;59.37;100681.25;18495782;32;20147;-66
2022/06/02 07:41:51;;;;;;;6.70;3.62;;;;;;;22.21;56.73;100675.22;18480898;32;20112;-66
2022/06/02 07:51:58;;;;;;;3.50;1.98;;;;;;;23.59;58.44;100665.81;18494632;32;20092;-67
2022/06/02 08:02:24;;;;;;;3.72;1.90;;;;;;;25.28;46.17;100662.72;18494076;32;20659;-66
2022/06/02 08:12:30;;;;;;;3.95;1.65;;;;;;;24.21;50.19;100667.00;18479082;32;20111;-66
2022/06/02 08:22:46;;;;;;;3.00;1.60;;;;;;;24.50;48.99;100657.37;18501028;32;20357;-66
2022/06/02 08:33:10;;;;;;;3.10;1.60;;;;;;;25.52;47.28;100663.09;18501351;32;20338;-66
2022/06/02 08:43:43;;;;;;;2.42;1.40;;;;;;;26.38;46.79;100665.81;18501169;32;20097;-67
2022/06/02 08:54:13;;;;;;;3.30;1.62;;;;;;;27.87;40.47;100657.66;18485942;32;20100;-67
2022/06/02 09:04:41;;;;;;;2.17;1.37;;;;;;;27.46;40.36;100670.28;18500294;32;20103;-66
2022/06/02 09:15:14;;;;;;;2.47;1.40;;;;;;;27.94;39.36;100670.53;18499526;32;20097;-67
2022/06/02 09:25:42;;;;;;;4.03;1.70;;;;;;;28.91;37.18;100661.72;18493606;32;20116;-67
2022/06/02 09:35:50;;;;;;;4.68;1.50;;;;;;;30.44;34.93;100660.59;18500513;32;20364;-67
2022/06/02 09:46:16;;;;;;;3.50;1.60;;;;;;;30.30;34.30;100667.13;18484456;32;20091;-67
2022/06/02 10:07:44;;;;;;;2.85;1.30;;;;;;;27.44;40.28;100667.72;18433477;32;20143;-67
2022/06/02 10:17:59;;;;;;;2.35;1.30;;;;;;;29.10;35.42;100656.78;18433460;32;20081;-67
2022/06/02 10:28:23;;;;;;;2.42;1.27;;;;;;;27.95;39.70;100660.63;18433660;32;20084;-67
2022/06/02 10:38:28;;;;;;;3.00;1.40;;;;;;;28.88;37.17;100648.53;18432150;32;20112;-68
2022/06/02 10:48:56;;;;;;;4.55;1.73;;;;;;;27.90;40.68;100662.81;18438462;32;20097;-71
2022/06/02 10:59:17;;;;;;;1.95;1.37;;;;;;;28.15;39.65;100653.84;18494097;32;20140;-69
2022/06/02 11:10:11;;;;;;;2.85;1.40;;;;;;;28.00;40.59;100666.53;18484080;32;20096;-68
2022/06/02 11:20:54;;;;;;;5.20;1.60;;;;;;;28.19;41.64;100660.72;18491276;32;20107;-68
2022/06/02 11:31:39;;;;;;;3.25;1.62;;;;;;;28.59;40.40;100654.25;18494640;32;20121;-69
2022/06/02 11:41:47;;;;;;;3.05;1.40;;;;;;;28.81;40.81;100655.31;18494093;32;20104;-70
2022/06/02 11:52:23;;;;;;;1.65;1.33;;;;;;;29.66;40.63;100647.13;18492746;32;20549;-68
2022/06/02 12:03:02;;;;;;;1.23;1.05;;;;;;;29.80;36.57;100648.72;18492804;32;20648;-68
2022/06/02 12:13:16;;;;;;;1.90;1.20;;;;;;;30.31;37.82;100653.53;18484926;32;20096;-68
2022/06/02 12:23:30;;;;;;;0.68;0.62;;;;;;;30.84;35.78;100659.16;18491181;32;20125;-67
2022/06/02 12:33:58;;;;;;;1.10;0.88;;;;;;;31.05;31.18;100651.09;18476549;32;20115;-68
2022/06/02 12:44:24;;;;;;;0.75;0.68;;;;;;;31.08;31.11;100653.50;18490038;32;20137;-68
2022/06/02 12:55:01;;;;;;;0.85;0.70;;;;;;;31.12;31.48;100663.06;18489703;32;20097;-68
2022/06/02 13:05:39;;;;;;;2.08;0.70;;;;;;;31.51;29.36;100658.91;18493969;32;20111;-68
2022/06/02 13:16:24;;;;;;;0.70;0.60;;;;;;;31.81;29.25;100670.72;18495729;32;20109;-68
2022/06/02 13:26:56;;;;;;;1.58;0.85;;;;;;;31.87;29.06;100667.47;18282492;32;20513;-67
2022/06/02 13:37:16;;;;;;;0.82;0.60;;;;;;;31.49;28.23;100660.87;18295303;32;20363;-68
2022/06/02 13:47:36;;;;;;;;;;;;;;;31.48;27.59;100653.75;18295856;32;20474;-68
2022/06/02 13:57:55;;;;;;;1.50;0.70;;;;;;;30.91;27.76;100648.69;18371498;32;19994;-67
2022/06/02 14:08:21;;;;;;;0.60;0.60;;;;;;;31.38;27.95;100648.34;18496870;32;20092;-67
2022/06/02 14:18:52;;;;;;;1.10;0.60;;;;;;;31.18;28.69;100644.63;18496894;32;20081;-68
2022/06/02 14:29:11;;;;;;;1.00;0.70;;;;;;;31.73;27.22;100655.19;18497083;32;20132;-68
2022/06/02 14:39:24;;;;;;;1.67;0.70;;;;;;;31.39;26.40;100650.03;18496081;32;20169;-68
2022/06/02 14:50:07;;;;;;;0.85;0.70;;;;;;;31.13;27.37;100637.81;18481446;32;20178;-68
2022/06/02 15:00:20;;;;;;;1.20;0.80;;;;;;;30.93;28.78;100630.59;18292552;32;20162;-69
2022/06/02 15:10:30;;;;;;;0.68;0.68;;;;;;;30.64;28.80;100629.31;18289035;32;20141;-68
2022/06/02 15:20:51;;;;;;;1.20;0.80;;;;;;;30.79;28.07;100629.91;18291576;32;20367;-68
2022/06/02 15:31:15;;;;;;;1.65;0.80;;;;;;;31.50;26.30;100627.53;18357160;32;20111;-68
2022/06/02 15:41:39;;;;;;;1.15;0.90;;;;;;;31.09;27.17;100622.88;18494389;32;20108;-68
2022/06/02 15:52:15;;;;;;;0.80;0.80;;;;;;;30.94;28.90;100622.34;18493077;32;20118;-68
2022/06/02 16:02:49;;;;;;;1.80;1.05;;;;;;;30.62;27.90;100620.53;18479057;32;20096;-67
2022/06/02 16:13:29;;;;;;;1.62;1.00;;;;;;;30.77;27.18;100631.88;18493821;32;20111;-69
2022/06/02 16:24:01;;;;;;;1.43;0.93;;;;;;;30.57;28.08;100638.91;18493185;32;20111;-68
2022/06/02 16:34:26;;;;;;;1.00;0.70;;;;;;;30.50;28.46;100648.50;18491398;32;20103;-68
2022/06/02 16:44:45;;;;;;;1.15;0.75;;;;;;;30.13;28.41;100644.28;18499662;32;20129;-67
2022/06/02 16:55:19;;;;;;;1.37;0.80;;;;;;;29.61;28.87;100659.09;18434698;32;20093;-68
2022/06/02 17:05:38;;;;;;;1.10;0.80;;;;;;;29.99;27.83;100650.75;18435325;32;20097;-68
2022/06/02 17:16:27;;;;;;;0.77;0.53;;;;;;;29.77;27.76;100664.09;18435142;32;20108;-68
2022/06/02 17:27:13;;;;;;;2.25;1.25;;;;;;;29.77;27.35;100665.94;18433578;32;20180;-68
2022/06/02 17:37:48;;;;;;;2.47;1.30;;;;;;;29.75;29.13;100666.06;18432892;32;20124;-70
2022/06/02 17:48:06;;;;;;;1.35;0.98;;;;;;;29.46;28.69;100666.53;18438853;32;20114;-67
2022/06/02 17:58:39;;;;;;;1.80;1.10;;;;;;;29.25;29.60;100660.13;18498372;32;20089;-67
2022/06/02 18:08:58;;;;;;;2.15;1.00;;;;;;;28.08;33.22;100676.72;18484303;32;20100;-67
2022/06/02 18:19:18;;;;;;;1.50;1.10;;;;;;;26.37;40.31;100689.06;18497513;32;20076;-68
2022/06/02 18:29:50;;;;;;;2.40;1.23;;;;;;;25.85;40.36;100704.72;18498166;32;20097;-67
2022/06/02 18:40:36;;;;;;;2.05;1.05;;;;;;;24.86;44.75;100719.44;18496900;32;20085;-67
2022/06/02 18:51:00;;;;;;;1.92;1.20;;;;;;;24.31;44.62;100732.22;18231017;32;20149;-67
2022/06/02 19:01:24;;;;;;;1.80;1.20;;;;;;;24.91;40.73;100733.41;18221652;32;20147;-67
2022/06/02 19:22:06;;;;;;;4.20;1.80;;;;;;;24.20;45.92;100756.84;18277803;32;20113;-66
2022/06/02 19:32:35;;;;;;;2.10;1.20;;;;;;;24.50;44.34;100742.75;18366617;32;20097;-67
2022/06/02 19:42:43;;;;;;;1.60;1.10;;;;;;;23.46;47.51;100756.19;18363902;32;20115;-67
2022/06/02 19:52:49;;;;;;;4.80;1.45;;;;;;;23.02;47.25;100759.25;18439332;32;20081;-68
2022/06/02 20:02:58;;;;;;;2.80;1.37;;;;;;;24.29;39.57;100743.94;18492113;32;20402;-69
2022/06/02 20:13:03;;;;;;;4.15;1.30;;;;;;;24.47;40.95;100745.59;18481085;32;20133;-67
2022/06/02 20:23:18;;;;;;;3.10;1.40;;;;;;;24.39;39.89;100746.00;18484589;32;20135;-67
2022/06/02 20:33:32;;;;;;;4.62;1.70;;;;;;;24.77;36.45;100743.97;18500164;32;20150;-67
2022/06/02 20:43:42;;;;;;;1.67;1.23;;;;;;;24.36;40.10;100767.53;18499389;32;20182;-67
2022/06/02 20:53:46;;;;;;;2.57;1.30;;;;;;;24.85;37.82;100756.88;18498862;32;20101;-67
2022/06/02 21:04:04;;;;;;;2.05;1.33;;;;;;;25.21;36.06;100775.28;18499627;32;20110;-67
2022/06/02 21:14:10;;;;;;;1.87;1.27;;;;;;;24.74;38.06;100789.50;18499125;32;20147;-67
2022/06/02 21:24:20;;;;;;;1.92;1.15;;;;;;;24.29;38.01;100794.62;18499271;32;20385;-67
2022/06/02 21:34:23;;;;;;;2.87;1.20;;;;;;;24.25;37.80;100810.78;18499678;32;20189;-67
2022/06/02 21:44:34;;;;;;;3.20;1.70;;;;;;;23.58;42.21;100812.47;18499390;32;20100;-67
2022/06/02 21:54:54;;;;;;;1.92;1.48;;;;;;;22.85;44.84;100820.31;18498873;32;20092;-67
2022/06/02 22:05:08;;;;;;;2.35;1.30;;;;;;;22.57;46.02;100842.94;18485271;32;20460;-67
2022/06/02 22:15:15;;;;;;;1.95;1.50;;;;;;;22.10;48.48;100848.50;18498311;32;20084;-67
2022/06/02 22:25:23;;;;;;;3.42;1.65;;;;;;;21.82;50.37;100836.44;18497836;32;20705;-67
2022/06/02 22:35:37;;;;;;;3.12;1.50;;;;;;;21.15;51.55;100839.09;18497830;32;20100;-67
2022/06/02 22:46:03;;;;;;;3.12;1.65;;;;;;;20.51;53.09;100838.84;18497565;32;20111;-67
2022/06/02 22:56:09;;;;;;;3.35;2.00;;;;;;;20.45;53.43;100849.66;18497141;32;20183;-67
2022/06/02 23:06:47;;;;;;;2.25;1.70;;;;;;;19.65;56.43;100840.91;18496848;32;20084;-67
2022/06/02 23:17:16;;;;;;;4.25;1.77;;;;;;;19.25;57.96;100843.03;18230862;32;20205;-66
2022/06/02 23:27:52;;;;;;;3.70;2.03;;;;;;;18.74;57.86;100866.59;18217935;32;20149;-67
2022/06/02 23:38:41;;;;;;;2.78;2.10;;;;;;;19.78;54.47;100871.34;18230021;32;20784;-67
2022/06/02 23:49:03;;;;;;;5.93;2.20;;;;;;;18.76;57.81;100906.19;18363692;32;20122;-67
2022/06/02 23:59:38;;;;;;;4.50;2.22;;;;;;;18.82;58.17;100904.22;18494670;32;20096;-67
